Time;durP1;ratioP1;P1;durP2;ratioP2;P2;SDS_P1;SDS_P2;PMS_P1;PMS_P2;Temp;Humidity;BMP_temperature;BMP_pressure;BME280_temperature;BME280_humidity;BME280_pressure;Samples;Min_cycle;Max_cycle;Signal;HPM_P1;HPM_P2
2021/03/25 00:00:24;;;;;;;183.18;134.88;;;;;;;;;;5013936;28;20041;-71
2021/03/25 00:02:51;;;;;;;156.73;105.78;;;;;;;;;;5013652;28;20100;-73
2021/03/25 00:05:17;;;;;;;175.18;124.22;;;;;;;;;;5013488;28;20192;-73
2021/03/25 00:07:43;;;;;;;180.50;126.10;;;;;;;;;;5013987;28;20060;-74
2021/03/25 00:10:10;;;;;;;254.18;173.98;;;;;;;;;;5013804;28;20026;-74
2021/03/25 00:12:37;;;;;;;201.55;135.57;;;179.60;2227.20;;;;;;5013954;28;20022;-73
2021/03/25 00:15:05;;;;;;;199.75;140.70;;;179.70;2201.60;;;;;;5013826;28;20025;-73
2021/03/25 00:17:31;;;;;;;174.85;119.63;;;179.60;2201.60;;;;;;5013531;28;20056;-73
2021/03/25 00:19:57;;;;;;;198.63;138.82;;;179.70;2201.60;;;;;;5013877;28;20113;-75
2021/03/25 00:22:22;;;;;;;193.63;137.88;;;179.70;2176.00;;;;;;4996322;28;20026;-73
2021/03/25 00:24:48;;;;;;;135.18;95.95;;;179.70;2201.60;;;;;;5013681;28;20094;-72
2021/03/25 00:27:14;;;;;;;166.07;118.55;;;179.70;2201.60;;;;;;5013612;28;20075;-73
2021/03/25 00:29:39;;;;;;;140.82;101.30;;;179.40;2252.80;;;;;;5013659;28;20044;-72
2021/03/25 00:32:06;;;;;;;115.50;80.47;;;179.30;2252.80;;;;;;5013626;28;20022;-74
2021/03/25 00:34:31;;;;;;;261.48;195.60;;;179.30;2252.80;;;;;;5013418;28;20022;-75
2021/03/25 00:36:57;;;;;;;265.00;191.23;;;154.50;2252.80;;;;;;5013516;28;20718;-75
2021/03/25 00:39:23;;;;;;;150.90;103.72;;;;;;;;;;5013435;28;20025;-76
2021/03/25 00:41:49;;;;;;;176.13;119.03;;;;;;;;;;5012754;28;20139;-72
2021/03/25 00:44:15;;;;;;;175.77;114.45;;;;;;;;;;5013411;28;20033;-70
2021/03/25 00:46:42;;;;;;;203.68;134.70;;;;;;;;;;5008495;28;20031;-70
2021/03/25 00:49:08;;;;;;;170.20;108.85;;;;;;;;;;5003321;28;20030;-72
2021/03/25 00:51:35;;;;;;;147.43;93.72;;;;;;;;;;5013141;28;20022;-72
2021/03/25 00:54:01;;;;;;;152.38;96.45;;;;;;;;;;5013265;28;20075;-72
2021/03/25 00:56:27;;;;;;;129.68;82.93;;;;;;;;;;5013249;28;20040;-72
2021/03/25 00:58:53;;;;;;;130.40;85.63;;;;;;;;;;5013207;28;20052;-72
2021/03/25 01:01:20;;;;;;;128.25;86.53;;;;;;;;;;5013265;28;20033;-72
2021/03/25 01:03:46;;;;;;;126.05;85.45;;;;;;;;;;5008472;28;20030;-69
2021/03/25 01:06:12;;;;;;;109.05;71.25;;;;;;;;;;5003583;28;20030;-73
2021/03/25 01:08:38;;;;;;;119.55;77.25;;;;;;;;;;5012863;28;20105;-73
2021/03/25 01:11:07;;;;;;;103.90;66.63;;;;;;;;;;5012893;28;20025;-73
2021/03/25 01:13:44;;;;;;;91.50;58.85;;;;;;;;;;5012921;28;20037;-73
2021/03/25 01:16:14;;;;;;;92.00;57.22;;;;;;;;;;5012570;28;20029;-72
2021/03/25 01:18:40;;;;;;;88.88;57.20;;;;;;;;;;5028268;28;20072;-71
2021/03/25 01:21:06;;;;;;;100.13;62.53;;;;;;;;;;5012879;28;20022;-73
2021/03/25 01:23:32;;;;;;;105.03;68.22;;;;;;;;;;5012577;28;20072;-73
2021/03/25 01:25:58;;;;;;;113.20;75.15;;;153.60;2252.80;;;;;;5012785;28;20030;-72
2021/03/25 01:28:23;;;;;;;104.55;63.83;;;128.90;2252.80;;;;;;5012770;28;20350;-73
2021/03/25 01:30:49;;;;;;;107.28;69.65;;;153.60;2252.80;;;;;;5012633;28;20093;-73
2021/03/25 01:33:19;;;;;;;88.15;55.28;;;153.70;2252.80;;;;;;5012885;28;20014;-73
2021/03/25 01:35:45;;;;;;;112.03;81.10;;;153.90;2252.80;;;;;;5012945;28;20062;-72
2021/03/25 01:38:13;;;;;;;121.68;93.22;;;153.60;2252.80;;;;;;5012733;28;20139;-75
2021/03/25 01:40:42;;;;;;;101.45;79.85;;;128.90;2252.80;;;;;;5012669;28;20026;-73
2021/03/25 01:43:22;;;;;;;87.43;62.92;;;153.70;2252.80;;;;;;5012695;28;20419;-72
2021/03/25 01:46:27;;;;;;;89.07;60.28;;;153.80;2252.80;;;;;;5012620;28;20038;-75
2021/03/25 01:48:57;;;;;;;80.45;49.60;;;153.90;2252.80;;;;;;4971432;28;20077;-74
2021/03/25 01:51:53;;;;;;;79.72;48.35;;;153.60;2252.80;;;;;;4971501;28;20512;-74
2021/03/25 01:54:39;;;;;;;86.07;51.72;;;153.70;2252.80;;;;;;4975462;28;20065;-75
2021/03/25 01:57:49;;;;;;;70.18;43.72;;;128.90;2252.80;;;;;;4975188;28;20428;-75
2021/03/25 02:01:05;;;;;;;68.35;43.58;;;153.70;2252.80;;;;;;4947063;28;20116;-74
2021/03/25 02:03:52;;;;;;;71.15;44.10;;;153.60;2252.80;;;;;;4917514;29;20036;-74
2021/03/25 02:06:21;;;;;;;81.22;47.20;;;128.90;2252.80;;;;;;4907450;29;20049;-74
2021/03/25 02:08:47;;;;;;;69.43;44.72;;;;;;;;;;4915208;29;20450;-75
2021/03/25 02:11:26;;;;;;;65.53;42.00;;;;;;;;;;4917645;29;20428;-73
2021/03/25 02:13:59;;;;;;;71.18;44.15;;;;;;;;;;4917797;29;20526;-73
2021/03/25 02:16:40;;;;;;;71.88;44.88;;;128.90;2252.80;;;;;;4917373;29;20068;-73
2021/03/25 02:19:17;;;;;;;75.30;47.53;;;128.90;2252.80;;;;;;4917411;29;20036;-74
2021/03/25 02:21:46;;;;;;;73.28;46.35;;;153.60;2252.80;;;;;;4917546;29;20024;-70
2021/03/25 02:24:17;;;;;;;84.10;53.35;;;128.90;2252.80;;;;;;4904651;29;20836;-71
2021/03/25 02:26:52;;;;;;;77.30;51.53;;;128.80;2252.80;;;;;;4936239;29;20035;-72
2021/03/25 02:29:37;;;;;;;85.75;55.63;;;128.80;2252.80;;;;;;4936335;29;20582;-71
2021/03/25 02:32:07;;;;;;;118.22;67.68;;;128.90;2252.80;;;;;;4936363;29;20036;-71
2021/03/25 02:34:39;;;;;;;104.43;63.22;;;128.90;2252.80;;;;;;4991804;28;20180;-71
2021/03/25 02:37:23;;;;;;;103.22;63.17;;;153.90;2252.80;;;;;;5015711;28;20503;-71
2021/03/25 02:39:52;;;;;;;82.05;53.97;;;153.80;2252.80;;;;;;5002909;28;20026;-71
2021/03/25 02:42:23;;;;;;;83.32;53.13;;;153.60;2252.80;;;;;;5015750;28;20022;-71
2021/03/25 02:45:00;;;;;;;79.90;51.10;;;128.90;2252.80;;;;;;5015488;28;20026;-73
2021/03/25 02:47:31;;;;;;;78.72;49.55;;;153.70;2252.80;;;;;;5009949;28;20505;-73
2021/03/25 02:50:05;;;;;;;73.57;47.38;;;153.90;2252.80;;;;;;5027311;28;20439;-74
2021/03/25 02:52:39;;;;;;;65.97;43.40;;;154.10;2252.80;;;;;;5027284;28;20030;-74
2021/03/25 02:55:09;;;;;;;68.53;43.58;;;154.00;2252.80;;;;;;5010866;28;20040;-74
2021/03/25 02:57:58;;;;;;;69.78;45.83;;;154.00;2252.80;;;;;;5015669;28;20117;-73
2021/03/25 03:00:29;;;;;;;72.80;48.00;;;154.00;2252.80;;;;;;5015146;28;20037;-72
2021/03/25 03:03:24;;;;;;;;;;;154.10;2252.80;;;;;;5016019;28;20459;-72
2021/03/25 03:05:52;;;;;;;68.60;44.90;;;153.90;2252.80;;;;;;5009544;28;19936;-72
2021/03/25 03:08:23;;;;;;;76.43;49.67;;;153.70;2252.80;;;;;;5015175;28;20033;-71
2021/03/25 03:11:12;;;;;;;81.45;53.55;;;153.70;2252.80;;;;;;5001585;28;20014;-71
2021/03/25 03:13:44;;;;;;;84.93;52.80;;;128.90;2252.80;;;;;;5008727;28;20044;-71
2021/03/25 03:16:53;;;;;;;80.57;48.88;;;128.60;2252.80;;;;;;5014705;28;20022;-71
2021/03/25 03:19:25;;;;;;;69.78;44.13;;;128.50;2252.80;;;;;;5014623;28;20050;-71
2021/03/25 03:21:58;;;;;;;69.57;43.03;;;128.40;2252.80;;;;;;5015259;28;20381;-72
2021/03/25 03:24:24;;;;;;;66.40;42.65;;;128.40;2252.80;;;;;;5001202;28;20026;-72
2021/03/25 03:27:00;;;;;;;70.32;42.40;;;;;;;;;;5030178;28;20113;-72
2021/03/25 03:29:29;;;;;;;63.72;39.55;;;103.10;2227.20;;;;;;5014742;28;20021;-72
2021/03/25 03:32:14;;;;;;;56.80;36.75;;;103.10;2227.20;;;;;;5014956;28;20032;-73
2021/03/25 03:34:43;;;;;;;52.78;35.28;;;103.00;2227.20;;;;;;5001619;28;20389;-72
2021/03/25 03:37:38;;;;;;;51.78;34.40;;;;;;;;;;5014745;28;20041;-72
2021/03/25 03:40:12;;;;;;;47.15;31.77;;;103.00;2227.20;;;;;;4957259;28;20385;-72
2021/03/25 03:42:39;;;;;;;49.83;33.17;;;103.10;2227.20;;;;;;4973537;28;20048;-72
2021/03/25 03:45:09;;;;;;;57.50;35.50;;;103.00;2227.20;;;;;;4973226;28;20043;-72
2021/03/25 03:47:36;;;;;;;58.95;37.25;;;;;;;;;;4973370;28;20035;-73
2021/03/25 03:50:18;;;;;;;58.63;38.33;;;102.70;2227.20;;;;;;4973157;28;20827;-71
2021/03/25 03:52:47;;;;;;;64.78;41.83;;;102.70;2227.20;;;;;;4973213;28;20031;-71
2021/03/25 03:55:14;;;;;;;71.55;44.03;;;;;;;;;;4973256;28;20490;-72
2021/03/25 03:57:58;;;;;;;62.67;39.40;;;102.90;2227.20;;;;;;4973272;28;20047;-71
2021/03/25 04:00:43;;;;;;;56.65;36.67;;;102.90;2227.20;;;;;;4972730;28;20041;-71
2021/03/25 04:03:22;;;;;;;63.80;37.28;;;102.90;2227.20;;;;;;4972845;28;20413;-72
2021/03/25 04:06:00;;;;;;;58.63;37.53;;;102.90;2227.20;;;;;;4973006;28;20085;-73
2021/03/25 04:08:49;;;;;;;65.18;41.08;;;102.90;2227.20;;;;;;4972948;28;20054;-73
2021/03/25 04:11:24;;;;;;;52.88;35.53;;;102.70;2227.20;;;;;;4896494;29;20063;-73
2021/03/25 04:13:56;;;;;;;48.90;33.05;;;102.80;2227.20;;;;;;4896202;29;20028;-73
2021/03/25 04:16:24;;;;;;;52.30;31.98;;;102.70;2227.20;;;;;;4921822;29;20047;-73
2021/03/25 04:19:07;;;;;;;51.03;33.63;;;102.80;2227.20;;;;;;4953446;29;20031;-73
2021/03/25 04:21:38;;;;;;;45.05;29.40;;;102.60;2227.20;;;;;;4953282;28;20040;-72
2021/03/25 04:24:17;;;;;;;48.08;30.85;;;102.70;2227.20;;;;;;4953224;29;20146;-73
2021/03/25 04:27:08;;;;;;;48.33;32.20;;;102.70;2227.20;;;;;;4953424;29;20540;-71
2021/03/25 04:29:58;;;;;;;51.05;33.03;;;103.10;2227.20;;;;;;4953086;29;20406;-72
2021/03/25 04:32:24;;;;;;;53.22;33.15;;;103.00;2227.20;;;;;;4953182;29;20090;-72
2021/03/25 04:34:50;;;;;;;65.18;38.92;;;103.20;2227.20;;;;;;4941630;29;20039;-72
2021/03/25 04:37:17;;;;;;;58.95;37.15;;;128.00;2252.80;;;;;;4953275;29;20114;-72
2021/03/25 04:39:44;;;;;;;63.70;40.83;;;;;;;;;;4918541;29;20115;-73
2021/03/25 04:42:10;;;;;;;73.15;46.15;;;128.60;2252.80;;;;;;4945550;29;20042;-69
2021/03/25 04:44:41;;;;;;;64.45;42.15;;;;;;;;;;4953006;28;20035;-71
2021/03/25 04:47:19;;;;;;;76.05;46.80;;;;;;;;;;4955272;28;20058;-70
2021/03/25 04:50:02;;;;;;;83.00;48.60;;;128.70;2227.20;;;;;;5013300;28;20030;-69
2021/03/25 04:52:30;;;;;;;75.70;45.03;;;128.20;2252.80;;;;;;5013401;28;20029;-71
2021/03/25 04:55:15;;;;;;;64.07;40.80;;;103.30;2227.20;;;;;;5013151;28;20053;-73
2021/03/25 04:58:06;;;;;;;51.33;32.55;;;102.90;2227.20;;;;;;5013555;28;20029;-72
2021/03/25 05:00:42;;;;;;;56.75;35.53;;;102.80;2227.20;;;;;;5012863;28;20437;-73
2021/03/25 05:03:18;;;;;;;55.80;38.10;;;102.70;2227.20;;;;;;5013443;28;20081;-74
2021/03/25 05:05:44;;;;;;;65.93;40.33;;;102.70;2227.20;;;;;;5013101;28;20048;-73
2021/03/25 05:08:17;;;;;;;67.18;41.47;;;102.70;2227.20;;;;;;5013078;28;20372;-74
2021/03/25 05:11:03;;;;;;;76.90;48.03;;;103.00;2227.20;;;;;;5012549;28;20380;-71
2021/03/25 05:13:35;;;;;;;73.97;44.42;;;103.20;2227.20;;;;;;5007267;28;20026;-70
2021/03/25 05:16:38;;;;;;;81.53;50.28;;;103.10;2227.20;;;;;;5012602;28;20022;-71
2021/03/25 05:19:19;;;;;;;77.90;50.78;;;128.00;2252.80;;;;;;5012694;28;20032;-73
2021/03/25 05:22:22;;;;;;;88.82;57.45;;;103.20;2227.20;;;;;;5012545;28;20018;-70
2021/03/25 05:25:03;;;;;;;88.85;53.28;;;128.20;2252.80;;;;;;5011632;28;20042;-72
2021/03/25 05:27:37;;;;;;;83.63;51.43;;;128.50;2252.80;;;;;;5011917;28;20029;-73
2021/03/25 05:30:12;;;;;;;81.38;51.58;;;128.50;2227.20;;;;;;5012447;28;20025;-73
2021/03/25 05:32:42;;;;;;;79.07;50.15;;;128.40;2227.20;;;;;;5010387;28;20014;-76
2021/03/25 05:35:09;;;;;;;80.05;48.22;;;;;;;;;;5012750;28;20041;-70
2021/03/25 05:37:36;;;;;;;80.57;50.45;;;153.70;2124.80;;;;;;5008950;28;20515;-72
2021/03/25 05:40:04;;;;;;;75.68;49.75;;;;;;;;;;5012484;28;20109;-70
2021/03/25 05:42:48;;;;;;;87.03;53.35;;;;;;;;;;5012364;28;20389;-71
2021/03/25 05:45:14;;;;;;;94.50;59.13;;;;;;;;;;5012372;28;20037;-71
2021/03/25 05:47:40;;;;;;;94.20;59.83;;;;;;;;;;5012870;28;20468;-70
2021/03/25 05:50:19;;;;;;;96.40;59.13;;;;;;;;;;5012419;28;20021;-71
2021/03/25 05:52:57;;;;;;;111.43;64.97;;;;;;;;;;5012473;28;20026;-71
2021/03/25 05:55:42;;;;;;;106.72;62.13;;;;;;;;;;5010359;28;20026;-71
2021/03/25 05:58:08;;;;;;;96.72;58.47;;;;;;;;;;5012678;28;20030;-71
2021/03/25 06:00:43;;;;;;;106.30;61.15;;;;;;;;;;5012272;28;20022;-71
2021/03/25 06:03:11;;;;;;;99.00;57.35;;;;;;;;;;5012316;28;20072;-71
2021/03/25 06:05:37;;;;;;;107.80;62.17;;;;;;;;;;5012365;28;20457;-71
2021/03/25 06:08:03;;;;;;;106.45;62.00;;;;;;;;;;5012332;28;20083;-71
2021/03/25 06:10:47;;;;;;;105.47;60.92;;;;;;;;;;5012054;28;20491;-71
2021/03/25 06:13:19;;;;;;;116.35;67.85;;;;;;;;;;5012103;28;20496;-70
2021/03/25 06:15:45;;;;;;;113.72;68.85;;;;;;;;;;5012180;28;20030;-72
2021/03/25 06:18:22;;;;;;;122.78;75.43;;;;;;;;;;5010724;28;20085;-72
2021/03/25 06:21:03;;;;;;;113.13;71.85;;;;;;;;;;5010657;28;20030;-71
2021/03/25 06:23:39;;;;;;;92.53;59.53;;;;;;;;;;5011973;28;20105;-71
2021/03/25 06:26:17;;;;;;;99.93;61.75;;;;;;;;;;5012057;28;20481;-71
2021/03/25 06:29:19;;;;;;;91.03;58.78;;;;;;;;;;5012267;28;20088;-71
2021/03/25 06:31:45;;;;;;;86.07;53.17;;;;;;;;;;4930405;29;20028;-71
2021/03/25 06:34:30;;;;;;;92.45;58.35;;;;;;;;;;4927806;29;20029;-71
2021/03/25 06:37:00;;;;;;;85.10;54.90;;;;;;;;;;4930487;29;20399;-71
2021/03/25 06:39:29;;;;;;;89.32;56.58;;;;;;;;;;4928702;29;20478;-71
2021/03/25 06:41:55;;;;;;;91.65;58.65;;;;;;;;;;4927892;29;20028;-71
2021/03/25 06:44:26;;;;;;;84.78;56.10;;;;;;;;;;4917014;29;20549;-72
2021/03/25 06:47:05;;;;;;;87.30;56.53;;;;;;;;;;4916758;29;20071;-71
2021/03/25 06:49:33;;;;;;;101.35;65.30;;;;;;;;;;4917121;29;20084;-71
2021/03/25 06:52:15;;;;;;;105.82;66.18;;;154.20;2150.40;;;;;;4916820;29;20039;-71
2021/03/25 06:54:40;;;;;;;;;;;;;;;;;;4917365;29;20110;-71
2021/03/25 06:57:15;;;;;;;95.18;61.72;;;179.50;1971.20;;;;;;4916718;29;20546;-72
2021/03/25 06:59:42;;;;;;;77.38;49.53;;;179.80;1920.00;;;;;;4916610;29;20040;-72
2021/03/25 07:02:14;;;;;;;85.90;56.33;;;;;;;;;;4916600;29;20822;-72
2021/03/25 07:04:45;;;;;;;76.45;48.97;;;205.00;1843.20;;;;;;4923656;28;20075;-73
2021/03/25 07:07:35;;;;;;;84.35;50.63;;;205.30;1843.20;;;;;;5015109;28;20022;-71
2021/03/25 07:10:02;;;;;;;97.90;58.58;;;205.40;1792.00;;;;;;5014818;28;20033;-71
2021/03/25 07:12:34;;;;;;;99.20;61.55;;;205.40;1817.60;;;;;;5014872;28;20036;-72
2021/03/25 07:15:00;;;;;;;;;;;230.60;1766.40;;;;;;5015543;28;20053;-72
2021/03/25 07:17:37;;;;;;;131.60;78.75;;;230.70;1715.20;;;;;;5014719;28;20344;-72
2021/03/25 07:20:26;;;;;;;100.93;56.05;;;256.00;1664.00;;;;;;5015040;28;20061;-70
2021/03/25 07:23:13;;;;;;;79.13;49.05;;;256.40;1587.20;;;;;;5014897;28;20022;-71
2021/03/25 07:25:46;;;;;;;79.10;48.83;;;256.90;1510.40;;;;;;5014559;28;20451;-70
2021/03/25 07:28:16;;;;;;;74.72;45.40;;;256.90;1510.40;;;;;;5015140;28;20068;-70
2021/03/25 07:30:47;;;;;;;73.47;47.17;;;256.60;1484.80;;;;;;5014627;28;20057;-70
2021/03/25 07:33:19;;;;;;;44.77;30.47;;;231.30;1561.60;;;;;;5014666;28;20018;-71
2021/03/25 07:35:54;;;;;;;54.47;33.40;;;231.10;1536.00;;;;;;5027779;28;20041;-70
2021/03/25 07:38:32;;;;;;;49.15;30.50;;;230.90;1587.20;;;;;;5014796;28;20456;-71
2021/03/25 07:41:06;;;;;;;44.20;26.75;;;230.90;1587.20;;;;;;5014329;28;20029;-70
2021/03/25 07:43:51;;;;;;;44.10;21.85;;;231.00;1612.80;;;;;;5014983;28;20022;-70
2021/03/25 07:46:28;;;;;;;30.42;20.23;;;231.30;1561.60;;;;;;5014327;28;20112;-70
2021/03/25 07:49:03;;;;;;;49.88;23.70;;;256.10;1561.60;;;;;;5014384;28;20028;-70
2021/03/25 07:51:41;;;;;;;47.53;24.25;;;256.60;1536.00;;;;;;5014240;28;20072;-71
2021/03/25 07:54:12;;;;;;;49.88;25.35;;;256.90;1510.40;;;;;;5012926;28;20450;-70
2021/03/25 07:56:56;;;;;;;41.92;20.38;;;281.70;1587.20;;;;;;5014328;28;20464;-70
2021/03/25 07:59:52;;;;;;;32.63;20.05;;;256.80;1484.80;;;;;;5014285;28;20108;-69
2021/03/25 08:02:30;;;;;;;41.95;20.88;;;256.80;1510.40;;;;;;4959584;28;20414;-71
2021/03/25 08:05:12;;;;;;;36.72;23.00;;;282.00;1510.40;;;;;;4972987;28;20042;-71
2021/03/25 08:07:38;;;;;;;;;;;282.20;1408.00;;;;;;4973379;28;20034;-71
2021/03/25 08:10:05;;;;;;;42.63;23.88;;;282.40;1459.20;;;;;;4972787;28;20002;-71
2021/03/25 08:12:36;;;;;;;32.30;16.98;;;307.30;1459.20;;;;;;4972800;28;20039;-70
2021/03/25 08:15:07;;;;;;;26.25;15.45;;;307.40;1408.00;;;;;;4972800;28;20062;-71
2021/03/25 08:17:43;;;;;;;24.55;15.43;;;307.20;1356.80;;;;;;4972318;28;20514;-71
2021/03/25 08:20:40;;;;;;;27.27;18.85;;;307.20;1331.20;;;;;;4972772;28;20504;-71
2021/03/25 08:23:28;;;;;;;27.02;16.92;;;282.40;1331.20;;;;;;4972713;28;20109;-70
2021/03/25 08:26:08;;;;;;;35.63;19.17;;;282.40;1254.40;;;;;;4952873;28;20043;-71
2021/03/25 08:28:50;;;;;;;20.45;13.98;;;282.50;1228.80;;;;;;4953206;28;20039;-71
2021/03/25 08:31:38;;;;;;;36.15;13.02;;;307.20;1228.80;;;;;;4953119;28;20035;-70
2021/03/25 08:34:36;;;;;;;28.25;14.20;;;307.40;1152.00;;;;;;4952882;28;20019;-70
2021/03/25 08:37:38;;;;;;;35.90;14.32;;;307.30;1203.20;;;;;;4953067;28;20039;-71
2021/03/25 08:40:24;;;;;;;29.92;14.45;;;307.50;1203.20;;;;;;4972286;28;20031;-72
2021/03/25 08:42:56;;;;;;;23.67;13.50;;;307.60;1177.60;;;;;;4971976;28;20402;-71
2021/03/25 08:45:54;;;;;;;27.25;17.60;;;307.60;1152.00;;;;;;4972204;28;20134;-71
2021/03/25 08:48:22;;;;;;;21.23;11.77;;;307.70;1152.00;;;;;;4970268;28;20039;-71
2021/03/25 08:50:59;;;;;;;40.63;15.68;;;307.80;1100.80;;;;;;4972124;28;20046;-71
2021/03/25 08:53:43;;;;;;;29.65;15.98;;;332.90;1126.40;;;;;;4971837;28;20067;-71
2021/03/25 08:56:38;;;;;;;31.35;15.88;;;308.10;1100.80;;;;;;4971768;28;20038;-71
2021/03/25 08:59:32;;;;;;;12.27;6.45;;;333.10;1075.20;;;;;;4955652;28;20397;-71
2021/03/25 09:02:22;;;;;;;22.42;8.73;;;332.90;896.00;;;;;;4954946;28;20114;-71
2021/03/25 09:05:06;;;;;;;17.52;10.60;;;333.30;870.40;;;;;;4971801;28;20406;-71
2021/03/25 09:07:34;;;;;;;34.70;13.05;;;333.40;921.60;;;;;;4971831;28;20564;-71
2021/03/25 09:10:13;;;;;;;28.70;11.90;;;358.50;921.60;;;;;;4971584;28;20034;-71
2021/03/25 09:12:39;;;;;;;21.00;12.40;;;358.50;921.60;;;;;;4959322;28;20507;-71
2021/03/25 09:15:06;;;;;;;19.92;10.93;;;333.70;896.00;;;;;;4971702;28;20051;-71
2021/03/25 09:17:47;;;;;;;29.45;15.90;;;333.40;921.60;;;;;;4971117;28;20082;-71
2021/03/25 09:20:24;;;;;;;18.13;12.30;;;358.40;972.80;;;;;;4971706;28;20023;-71
2021/03/25 09:22:56;;;;;;;16.33;11.50;;;358.40;972.80;;;;;;4959147;28;20458;-71
2021/03/25 09:25:27;;;;;;;21.98;13.38;;;333.60;947.20;;;;;;4971330;28;20109;-71
2021/03/25 09:28:09;;;;;;;31.52;15.18;;;358.60;947.20;;;;;;4971589;28;20073;-71
2021/03/25 09:31:07;;;;;;;25.40;12.02;;;358.50;921.60;;;;;;4971371;28;20386;-71
2021/03/25 09:33:46;;;;;;;28.27;18.17;;;359.30;896.00;;;;;;4932904;29;20133;-71
2021/03/25 09:36:32;;;;;;;21.88;14.13;;;384.20;870.40;;;;;;4949442;28;20034;-72
2021/03/25 09:38:58;;;;;;;27.95;14.40;;;435.20;793.60;;;;;;4952120;28;20557;-71
2021/03/25 09:41:29;;;;;;;21.98;9.93;;;538.50;588.80;;;;;;4951560;29;20131;-72
2021/03/25 09:44:15;;;;;;;;;;;640.00;486.40;;;;;;4952262;29;20093;-72
2021/03/25 09:46:41;;;;;;;34.72;11.07;;;;;;;;;;4951649;28;19969;-72
2021/03/25 09:49:26;;;;;;;26.73;13.82;;;717.10;409.60;;;;;;4951913;29;20051;-70
2021/03/25 09:52:07;;;;;;;18.77;11.18;;;717.10;409.60;;;;;;4951649;29;20062;-70
2021/03/25 09:54:34;;;;;;;34.70;13.80;;;;;;;;;;4951925;28;20088;-71
2021/03/25 09:57:19;;;;;;;25.88;11.60;;;793.70;332.80;;;;;;4951551;29;20031;-71
2021/03/25 09:59:55;;;;;;;44.53;19.42;;;794.20;307.20;;;;;;4951994;28;20032;-71
2021/03/25 10:02:49;;;;;;;31.38;13.88;;;819.80;281.60;;;;;;4932554;29;20131;-71
2021/03/25 10:05:24;;;;;;;28.75;14.73;;;;;;;;;;4948276;29;20471;-71
2021/03/25 10:07:52;;;;;;;22.05;11.45;;;;;;;;;;4951940;29;20023;-71
2021/03/25 10:10:24;;;;;;;37.17;14.13;;;;;;;;;;4960369;28;20596;-71
2021/03/25 10:13:01;;;;;;;19.58;12.95;;;640.40;409.60;;;;;;4970988;28;20130;-71
2021/03/25 10:15:42;;;;;;;22.75;9.85;;;640.00;409.60;;;;;;4973551;28;20041;-70
2021/03/25 10:18:16;;;;;;;36.00;14.77;;;665.70;358.40;;;;;;5015763;28;20530;-71
2021/03/25 10:21:08;;;;;;;28.05;12.65;;;691.60;358.40;;;;;;5016325;28;20372;-71
2021/03/25 10:23:59;;;;;;;20.13;9.80;;;665.60;384.00;;;;;;5015973;28;20025;-71
2021/03/25 10:26:25;;;;;;;16.98;8.52;;;614.80;409.60;;;;;;4993320;28;20106;-71
2021/03/25 10:29:06;;;;;;;15.13;7.75;;;640.00;384.00;;;;;;4992033;28;20489;-71
2021/03/25 10:31:46;;;;;;;18.55;7.22;;;666.50;332.80;;;;;;4992209;28;20030;-71
2021/03/25 10:34:32;;;;;;;15.93;9.93;;;691.80;332.80;;;;;;4992263;28;20022;-71
2021/03/25 10:37:17;;;;;;;15.65;10.38;;;666.50;358.40;;;;;;4992242;28;20038;-71
2021/03/25 10:39:45;;;;;;;14.75;9.65;;;614.90;409.60;;;;;;4992136;28;20062;-71
2021/03/25 10:42:32;;;;;;;27.15;16.30;;;614.80;435.20;;;;;;4984691;28;20505;-71
2021/03/25 10:45:13;;;;;;;17.13;10.55;;;589.50;486.40;;;;;;4897752;29;20047;-70
2021/03/25 10:47:54;;;;;;;18.50;13.63;;;614.50;512.00;;;;;;4897974;29;20036;-71
2021/03/25 10:50:28;;;;;;;19.67;10.75;;;614.60;435.20;;;;;;4897877;29;20051;-72
2021/03/25 10:52:55;;;;;;;21.20;10.98;;;588.80;512.00;;;;;;4897836;29;20069;-72
2021/03/25 10:55:29;;;;;;;21.92;12.32;;;563.20;563.20;;;;;;4897603;29;20100;-70
2021/03/25 10:58:00;;;;;;;23.95;12.93;;;538.10;563.20;;;;;;4897285;29;20383;-70
2021/03/25 11:00:36;;;;;;;89.15;25.52;;;538.30;563.20;;;;;;4897673;29;20036;-70
2021/03/25 11:03:21;;;;;;;45.45;38.95;;;564.00;537.60;;;;;;4917651;29;20050;-71
2021/03/25 11:05:53;;;;;;;38.70;22.02;;;563.40;537.60;;;;;;4954655;29;20042;-71
2021/03/25 11:08:33;;;;;;;25.25;16.83;;;538.00;563.20;;;;;;4954524;29;20475;-71
2021/03/25 11:11:02;;;;;;;42.08;25.65;;;538.10;512.00;;;;;;4954477;29;20027;-71
2021/03/25 11:13:30;;;;;;;62.90;33.13;;;614.70;435.20;;;;;;4954692;29;20042;-71
2021/03/25 11:16:05;;;;;;;70.72;36.70;;;665.80;384.00;;;;;;4954462;29;20031;-71
2021/03/25 11:19:07;;;;;;;16.50;11.35;;;640.70;384.00;;;;;;4954196;28;20059;-71
2021/03/25 11:21:41;;;;;;;45.40;15.82;;;614.40;435.20;;;;;;4966858;28;20058;-70
2021/03/25 11:24:16;;;;;;;16.10;11.88;;;564.00;512.00;;;;;;5012652;28;20097;-71
2021/03/25 11:26:42;;;;;;;51.75;14.85;;;538.00;563.20;;;;;;5013994;28;20034;-71
2021/03/25 11:29:10;;;;;;;28.20;11.45;;;512.70;563.20;;;;;;5014595;28;20108;-71
2021/03/25 11:31:36;;;;;;;45.95;22.98;;;487.30;588.80;;;;;;5014570;28;20026;-71
2021/03/25 11:34:03;;;;;;;54.20;25.85;;;486.90;588.80;;;;;;5014490;28;20358;-70
2021/03/25 11:36:37;;;;;;;42.90;21.75;;;486.40;614.40;;;;;;5014913;28;20026;-71
2021/03/25 11:39:17;;;;;;;21.90;12.48;;;461.70;640.00;;;;;;5014776;28;20543;-71
2021/03/25 11:41:44;;;;;;;27.40;15.75;;;512.00;588.80;;;;;;5014413;28;20085;-71
2021/03/25 11:44:10;;;;;;;26.23;17.15;;;589.00;512.00;;;;;;5014359;28;20407;-71
2021/03/25 11:46:38;;;;;;;38.85;19.27;;;640.00;435.20;;;;;;5014409;28;20077;-71
2021/03/25 11:49:06;;;;;;;60.90;25.15;;;589.60;460.80;;;;;;5014930;28;20420;-71
2021/03/25 11:51:40;;;;;;;38.50;20.30;;;564.00;512.00;;;;;;5013963;28;20030;-71
2021/03/25 11:54:29;;;;;;;39.10;17.38;;;538.40;537.60;;;;;;5014324;28;20018;-71
2021/03/25 11:57:01;;;;;;;50.63;24.17;;;512.90;512.00;;;;;;5013942;28;20021;-71
2021/03/25 11:59:38;;;;;;;23.88;16.98;;;538.10;537.60;;;;;;5014212;28;20029;-72
2021/03/25 12:02:21;;;;;;;28.73;14.18;;;589.40;486.40;;;;;;5013880;28;20101;-72
2021/03/25 12:04:48;;;;;;;23.95;14.15;;;589.10;486.40;;;;;;5014123;28;20497;-72
2021/03/25 12:07:18;;;;;;;46.35;25.17;;;563.50;563.20;;;;;;5013928;28;20049;-72
2021/03/25 12:10:00;;;;;;;68.90;31.40;;;538.20;537.60;;;;;;5014071;28;20377;-71
2021/03/25 12:12:27;;;;;;;32.67;17.95;;;512.90;537.60;;;;;;5013730;28;20109;-71
2021/03/25 12:14:53;;;;;;;48.50;27.02;;;563.70;537.60;;;;;;5014126;28;20081;-71
2021/03/25 12:17:19;;;;;;;42.75;21.40;;;563.90;563.20;;;;;;5013283;28;20058;-71
2021/03/25 12:19:45;;;;;;;47.35;24.20;;;538.40;563.20;;;;;;5013804;28;20022;-72
2021/03/25 12:22:13;;;;;;;33.13;18.58;;;512.70;563.20;;;;;;5013745;28;20018;-72
2021/03/25 12:24:39;;;;;;;57.55;28.02;;;512.10;588.80;;;;;;5013708;28;20033;-71
2021/03/25 12:27:05;;;;;;;51.15;27.88;;;486.80;614.40;;;;;;5013399;28;20109;-71
2021/03/25 12:29:31;;;;;;;31.33;18.83;;;461.70;665.60;;;;;;5013354;28;20028;-71
2021/03/25 12:31:57;;;;;;;28.13;18.25;;;461.40;691.20;;;;;;5013865;28;20030;-71
2021/03/25 12:34:23;;;;;;;36.25;19.05;;;460.90;691.20;;;;;;5013459;28;20101;-71
2021/03/25 12:36:50;;;;;;;37.70;20.98;;;436.10;716.80;;;;;;5012792;28;20029;-72
2021/03/25 12:39:18;;;;;;;32.45;18.73;;;436.00;742.40;;;;;;5013320;28;20036;-71
2021/03/25 12:41:46;;;;;;;33.08;21.63;;;436.00;742.40;;;;;;5013361;28;20450;-71
2021/03/25 12:44:13;;;;;;;23.50;15.20;;;436.10;768.00;;;;;;5013185;28;20033;-71
2021/03/25 12:46:41;;;;;;;20.85;16.00;;;460.90;768.00;;;;;;5012929;28;20551;-71
2021/03/25 12:49:07;;;;;;;25.13;16.40;;;486.40;691.20;;;;;;5013283;28;20022;-71
2021/03/25 12:51:33;;;;;;;30.30;18.98;;;461.30;716.80;;;;;;5013062;28;20105;-71
2021/03/25 12:53:58;;;;;;;24.08;17.42;;;461.20;742.40;;;;;;5013166;28;20097;-70
2021/03/25 12:56:27;;;;;;;17.05;12.45;;;460.80;768.00;;;;;;5013682;28;20014;-71
2021/03/25 12:58:55;;;;;;;19.90;15.52;;;435.80;742.40;;;;;;5012837;28;20018;-72
2021/03/25 13:01:24;;;;;;;29.33;18.85;;;435.70;742.40;;;;;;5013019;28;20026;-72
2021/03/25 13:03:50;;;;;;;80.25;41.25;;;435.70;742.40;;;;;;5024768;28;20034;-71
2021/03/25 13:06:17;;;;;;;42.28;22.83;;;436.00;742.40;;;;;;5003975;28;20038;-71